Fort Worth Meacham International Airport
KFTW : now visible

Aeroporto :











RITROVATECI SU...

 
LOGIN :

Iscrizione | Disclaimer

   EN    FR    IT 

 









Sommario :    VFR   VFR Marginale   IFR   IFR Intensivo   IFR Molto Intensivo
Visibilità : 
Base nubi : 
>= 8 km
>= 3000ft
5 / 8 km
1000 / 3000 ft
1500m / 5 km
500 / 1000 ft
800 / 1500m
200 / 500 ft
< 800m
< 200 ft
Simboli :   Temporali  Nebbia  Neve Forte  Precipitazioni Forti  Vento > 20 kt






- Altitudine del aeroporto : 710 ft
- Codice IATA : FTW


KFTW - Fort Worth Meacham International

ULTIMO METAR :
  • 250053Z 15012KT 10SM CLR 33/21 A2985 RMK AO2 SLP097 T03330211

METARs OBSOLETI :
  • 242353Z 17009KT 10SM CLR 33/20 A2986 RMK AO2 SLP099 T03330200 10367 20328 56015
  • 242253Z 19009KT 10SM CLR 36/19 A2987 RMK AO2 SLP102 T03560189
  • 242153Z 16011G18KT 10SM SCT065 36/20 A2988 RMK AO2 SLP107 T03610200
  • 242053Z 17010G15KT 10SM SCT065 35/19 A2990 RMK AO2 SLP113 T03500194 56019

TAF KFTW
Valido dal 25 a 00 ore il 26 a 00 ore UTC


242320Z 2500/2524 17009KT P6SM SCT060
FIR KZFW / America del Nord



MetMap, La meteo Aeronautica in un colpo d'occhio ! - Copyright ORBIFLY Dicembre 2007 - Disclaimer

ORBIFLY MET'MAP TEAM :

Programmazione e sviluppo : Alexandra Zaïnal
Concezione : Baudouin d'Aumeries
Supporto tecnico e logistico : Manuel Goepfert
Aiuto : Marc-Olivier Méhu
Aiuto per la traduzione : Arnaldo La Scala




FONTI E CREDITI :

   NOAA       Earth
Advisory